Impacts METAR Board
IDs:

KGTU - Georgetown Muni, TX, US

Updated at: 0500 UTC 19 Aug 2019
Potential Impact None Slight Moderate High
Time 18/17Z 18/18Z 18/19Z 18/20Z 18/21Z 18/22Z 18/23Z 19/00Z 19/01Z 19/02Z 19/03Z 19/04Z 19/05Z
Temp91 94 96 97 99 99 99 98 96 93 91 88 86
Dewpt70 69 69 68 68 67 67 66 66 69 70 70 71
Altim29.93 29.92 29.91 29.90 29.88 29.86 29.85 29.86 29.86 29.88 29.89 29.92 29.95
VIS10 10 10 10 10 10 10 10 10 10 10 10 10
CIG-- -- -- -- -- -- -- -- -- -- -- -- --
CoverCLRCLRCLRCLRCLRCLRCLRCLRCLRCLRCLRCLRCLR
FltCatVFRVFRVFRVFRVFRVFRVFRVFRVFRVFRVFRVFRVFR
WX--------------------------
WDir180170200160180160160150160150160170170
WSpd13 8 14 10 12 9 10 7 6 9 13 16 14
WGst-- 15 18 -- 15 15 -- -- -- -- 18 21 18
Raw hourly METARs
KGTU 181656Z 18013KT 10SM CLR 33/21 A2993 RMK AO2 SLP127 T03280211
KGTU 181756Z 17008G15KT 10SM CLR 34/21 A2992 RMK AO2 SLP122 T03440206 10344 20267 58006
KGTU 181856Z 20014G18KT 10SM CLR 36/21 A2991 RMK AO2 SLP119 T03560206
KGTU 181956Z 16010KT 10SM CLR 36/20 A2990 RMK AO2 SLP113 T03610200
KGTU 182056Z 18012G15KT 10SM CLR 37/20 A2988 RMK AO2 SLP109 T03720200 58016
KGTU 182156Z 16009G15KT 10SM CLR 37/19 A2986 RMK AO2 SLP102 T03720194
KGTU 182256Z 16010KT 10SM CLR 37/19 A2985 RMK AO2 SLP101 T03720194
KGTU 182356Z 15007KT 10SM CLR 37/19 A2986 RMK AO2 SLP099 T03670189 10378 20344 55006
KGTU 190056Z 16006KT 10SM CLR 36/19 A2986 RMK AO2 SLP100 T03560189
KGTU 190156Z 15009KT 10SM CLR 34/21 A2988 RMK AO2 SLP108 T03390206
KGTU 190256Z 16013G18KT 10SM CLR 33/21 A2989 RMK AO2 SLP113 T03280211 53012
KGTU 190356Z AUTO 17016G21KT 10SM CLR 31/21 A2992 RMK AO2 SLP123 T03110211
KGTU 190456Z AUTO 17014G18KT 10SM CLR 30/22 A2995 RMK AO2 SLP130 T03000217



Page loaded:  05:34 UTC  |   10:34 PM Pacific  |   11:34 PM Mountain  |   12:34 AM Central  |   01:34 AM Eastern

 

ADVISORIES

FORECASTS

FORECASTS

OBSERVATIONS

USER TOOLS

ABOUT US